sensor_id;sensor_type;location;lat;lon;timestamp;pressure;altitude;pressure_sealevel;temperature;humidity
13314;BME280;6725;48.112;11.604;2023-04-30T00:00:14;95430.22;;;12.29;100.00
13314;BME280;6725;48.112;11.604;2023-04-30T00:02:40;95437.72;;;12.25;100.00
13314;BME280;6725;48.112;11.604;2023-04-30T00:05:05;95429.13;;;12.23;100.00
13314;BME280;6725;48.112;11.604;2023-04-30T00:07:31;95428.72;;;12.24;100.00
13314;BME280;6725;48.112;11.604;2023-04-30T00:09:56;95426.28;;;12.30;100.00
13314;BME280;6725;48.112;11.604;2023-04-30T00:12:22;95423.66;;;12.23;100.00
13314;BME280;6725;48.112;11.604;2023-04-30T00:14:47;95427.94;;;12.24;100.00
13314;BME280;6725;48.112;11.604;2023-04-30T00:17:13;95430.59;;;12.01;100.00
13314;BME280;6725;48.112;11.604;2023-04-30T00:19:38;95430.50;;;12.08;100.00
13314;BME280;6725;48.112;11.604;2023-04-30T00:22:04;95424.94;;;12.15;100.00
13314;BME280;6725;48.112;11.604;2023-04-30T00:24:30;95425.72;;;12.15;100.00
13314;BME280;6725;48.112;11.604;2023-04-30T00:26:55;95429.69;;;12.11;100.00
13314;BME280;6725;48.112;11.604;2023-04-30T00:29:21;95422.56;;;12.17;100.00
13314;BME280;6725;48.112;11.604;2023-04-30T00:31:46;95431.75;;;12.03;100.00
13314;BME280;6725;48.112;11.604;2023-04-30T00:34:11;95424.47;;;11.90;100.00
13314;BME280;6725;48.112;11.604;2023-04-30T00:36:37;95412.38;;;11.91;100.00
13314;BME280;6725;48.112;11.604;2023-04-30T00:39:03;95418.16;;;11.96;100.00
13314;BME280;6725;48.112;11.604;2023-04-30T00:41:29;95413.44;;;11.97;100.00
13314;BME280;6725;48.112;11.604;2023-04-30T00:43:55;95408.84;;;11.90;100.00
13314;BME280;6725;48.112;11.604;2023-04-30T00:46:21;95411.84;;;11.99;100.00
13314;BME280;6725;48.112;11.604;2023-04-30T00:48:46;95407.13;;;12.03;100.00
13314;BME280;6725;48.112;11.604;2023-04-30T00:51:13;95399.25;;;12.05;100.00
13314;BME280;6725;48.112;11.604;2023-04-30T00:53:39;95404.72;;;12.05;100.00
13314;BME280;6725;48.112;11.604;2023-04-30T00:56:07;95402.97;;;11.92;100.00
13314;BME280;6725;48.112;11.604;2023-04-30T00:58:33;95402.59;;;11.90;100.00
13314;BME280;6725;48.112;11.604;2023-04-30T01:01:00;95387.84;;;11.84;100.00
13314;BME280;6725;48.112;11.604;2023-04-30T01:03:27;95392.22;;;11.78;100.00
13314;BME280;6725;48.112;11.604;2023-04-30T01:05:52;95390.66;;;11.77;100.00
13314;BME280;6725;48.112;11.604;2023-04-30T01:08:18;95383.69;;;11.72;100.00
13314;BME280;6725;48.112;11.604;2023-04-30T01:10:50;95388.00;;;11.70;100.00
13314;BME280;6725;48.112;11.604;2023-04-30T01:13:27;95389.66;;;11.64;100.00
13314;BME280;6725;48.112;11.604;2023-04-30T01:16:16;95379.09;;;11.66;100.00
13314;BME280;6725;48.112;11.604;2023-04-30T01:18:49;95383.47;;;11.56;100.00
13314;BME280;6725;48.112;11.604;2023-04-30T01:21:17;95379.50;;;11.61;100.00
13314;BME280;6725;48.112;11.604;2023-04-30T01:27:18;95369.00;;;11.56;100.00
13314;BME280;6725;48.112;11.604;2023-04-30T01:29:47;95354.69;;;11.45;100.00
13314;BME280;6725;48.112;11.604;2023-04-30T01:32:14;95365.53;;;11.52;100.00
13314;BME280;6725;48.112;11.604;2023-04-30T01:34:39;95352.78;;;11.42;100.00
13314;BME280;6725;48.112;11.604;2023-04-30T01:37:14;95347.75;;;11.37;100.00
13314;BME280;6725;48.112;11.604;2023-04-30T01:40:11;95346.94;;;11.40;100.00
13314;BME280;6725;48.112;11.604;2023-04-30T01:42:52;95339.41;;;11.51;100.00
13314;BME280;6725;48.112;11.604;2023-04-30T01:50:57;95329.53;;;11.57;100.00
13314;BME280;6725;48.112;11.604;2023-04-30T01:53:39;95333.84;;;11.58;100.00
13314;BME280;6725;48.112;11.604;2023-04-30T01:56:09;95328.56;;;11.40;100.00
13314;BME280;6725;48.112;11.604;2023-04-30T01:58:37;95332.91;;;11.38;100.00
13314;BME280;6725;48.112;11.604;2023-04-30T02:01:02;95323.16;;;11.37;100.00
13314;BME280;6725;48.112;11.604;2023-04-30T02:03:28;95322.75;;;11.38;100.00
13314;BME280;6725;48.112;11.604;2023-04-30T02:05:54;95320.75;;;11.42;100.00
13314;BME280;6725;48.112;11.604;2023-04-30T02:08:19;95321.06;;;11.48;100.00
13314;BME280;6725;48.112;11.604;2023-04-30T02:10:45;95321.88;;;11.45;100.00
13314;BME280;6725;48.112;11.604;2023-04-30T02:13:10;95320.69;;;11.46;100.00
13314;BME280;6725;48.112;11.604;2023-04-30T02:15:35;95321.16;;;11.41;100.00
13314;BME280;6725;48.112;11.604;2023-04-30T02:18:01;95311.91;;;11.31;100.00
13314;BME280;6725;48.112;11.604;2023-04-30T02:20:26;95307.09;;;11.39;100.00
13314;BME280;6725;48.112;11.604;2023-04-30T02:22:52;95304.69;;;11.44;100.00
13314;BME280;6725;48.112;11.604;2023-04-30T02:25:17;95309.53;;;11.33;100.00
13314;BME280;6725;48.112;11.604;2023-04-30T02:27:42;95306.28;;;11.42;100.00
13314;BME280;6725;48.112;11.604;2023-04-30T02:30:08;95315.78;;;11.34;100.00
13314;BME280;6725;48.112;11.604;2023-04-30T02:32:33;95300.81;;;11.42;100.00
13314;BME280;6725;48.112;11.604;2023-04-30T02:34:59;95299.22;;;11.44;100.00
13314;BME280;6725;48.112;11.604;2023-04-30T02:37:24;95310.31;;;11.34;100.00
13314;BME280;6725;48.112;11.604;2023-04-30T02:39:50;95296.63;;;11.34;100.00
13314;BME280;6725;48.112;11.604;2023-04-30T02:42:15;95300.09;;;11.38;100.00
13314;BME280;6725;48.112;11.604;2023-04-30T02:44:41;95297.19;;;11.22;100.00
13314;BME280;6725;48.112;11.604;2023-04-30T02:47:06;95289.50;;;11.10;100.00
13314;BME280;6725;48.112;11.604;2023-04-30T02:49:32;95284.34;;;11.19;100.00
13314;BME280;6725;48.112;11.604;2023-04-30T02:51:57;95284.34;;;11.19;100.00
13314;BME280;6725;48.112;11.604;2023-04-30T02:54:22;95279.41;;;11.07;100.00
13314;BME280;6725;48.112;11.604;2023-04-30T02:56:48;95273.47;;;11.12;100.00
13314;BME280;6725;48.112;11.604;2023-04-30T02:59:13;95276.13;;;11.19;100.00
13314;BME280;6725;48.112;11.604;2023-04-30T03:01:39;95271.25;;;11.03;100.00
13314;BME280;6725;48.112;11.604;2023-04-30T03:04:04;95270.75;;;11.12;100.00
13314;BME280;6725;48.112;11.604;2023-04-30T03:06:31;95270.28;;;11.17;100.00
13314;BME280;6725;48.112;11.604;2023-04-30T03:08:57;95266.81;;;11.13;100.00
13314;BME280;6725;48.112;11.604;2023-04-30T03:11:22;95268.84;;;11.09;100.00
13314;BME280;6725;48.112;11.604;2023-04-30T03:13:48;95254.28;;;11.15;100.00
13314;BME280;6725;48.112;11.604;2023-04-30T03:16:17;95255.53;;;11.11;100.00
13314;BME280;6725;48.112;11.604;2023-04-30T03:18:44;95249.66;;;11.12;100.00
13314;BME280;6725;48.112;11.604;2023-04-30T03:21:09;95245.91;;;10.99;100.00
13314;BME280;6725;48.112;11.604;2023-04-30T03:23:35;95246.22;;;10.75;100.00
13314;BME280;6725;48.112;11.604;2023-04-30T03:26:00;95235.13;;;10.89;100.00
13314;BME280;6725;48.112;11.604;2023-04-30T03:28:26;95227.38;;;10.84;100.00
13314;BME280;6725;48.112;11.604;2023-04-30T03:30:51;95219.72;;;10.72;100.00
13314;BME280;6725;48.112;11.604;2023-04-30T03:33:17;95212.66;;;10.74;100.00
13314;BME280;6725;48.112;11.604;2023-04-30T03:35:42;95197.09;;;10.71;100.00
13314;BME280;6725;48.112;11.604;2023-04-30T03:38:08;95190.56;;;10.62;100.00
13314;BME280;6725;48.112;11.604;2023-04-30T03:40:33;95167.56;;;10.63;100.00
13314;BME280;6725;48.112;11.604;2023-04-30T03:42:58;95159.88;;;10.51;100.00
13314;BME280;6725;48.112;11.604;2023-04-30T03:45:24;95147.34;;;10.57;100.00
13314;BME280;6725;48.112;11.604;2023-04-30T03:47:50;95133.50;;;10.41;100.00
13314;BME280;6725;48.112;11.604;2023-04-30T03:50:16;95105.56;;;10.30;100.00
13314;BME280;6725;48.112;11.604;2023-04-30T03:52:42;95069.13;;;10.13;100.00
13314;BME280;6725;48.112;11.604;2023-04-30T03:55:08;95038.50;;;10.29;100.00
13314;BME280;6725;48.112;11.604;2023-04-30T03:57:33;95008.22;;;10.20;100.00
13314;BME280;6725;48.112;11.604;2023-04-30T03:59:58;94986.84;;;10.14;100.00
13314;BME280;6725;48.112;11.604;2023-04-30T04:02:24;94981.38;;;10.14;100.00
13314;BME280;6725;48.112;11.604;2023-04-30T04:04:50;94906.13;;;10.17;100.00
13314;BME280;6725;48.112;11.604;2023-04-30T04:07:16;94882.84;;;10.09;100.00
13314;BME280;6725;48.112;11.604;2023-04-30T04:09:41;94878.47;;;10.15;100.00
13314;BME280;6725;48.112;11.604;2023-04-30T04:12:07;94874.25;;;10.10;100.00
13314;BME280;6725;48.112;11.604;2023-04-30T04:14:32;94854.66;;;10.19;100.00
13314;BME280;6725;48.112;11.604;2023-04-30T04:16:58;94857.22;;;10.30;100.00
13314;BME280;6725;48.112;11.604;2023-04-30T04:19:25;94839.66;;;10.31;100.00
13314;BME280;6725;48.112;11.604;2023-04-30T04:21:50;94849.75;;;10.34;100.00
13314;BME280;6725;48.112;11.604;2023-04-30T04:24:15;94852.81;;;10.13;100.00
13314;BME280;6725;48.112;11.604;2023-04-30T04:26:41;94842.63;;;10.40;100.00
13314;BME280;6725;48.112;11.604;2023-04-30T04:29:06;94854.44;;;10.33;100.00
13314;BME280;6725;48.112;11.604;2023-04-30T04:31:35;94866.00;;;10.41;100.00
13314;BME280;6725;48.112;11.604;2023-04-30T04:34:02;94875.25;;;10.47;100.00
13314;BME280;6725;48.112;11.604;2023-04-30T04:36:28;94872.53;;;10.47;100.00
13314;BME280;6725;48.112;11.604;2023-04-30T04:38:58;94880.78;;;10.43;100.00
13314;BME280;6725;48.112;11.604;2023-04-30T04:41:30;94881.44;;;10.51;100.00
13314;BME280;6725;48.112;11.604;2023-04-30T04:43:57;94882.13;;;10.55;100.00
13314;BME280;6725;48.112;11.604;2023-04-30T04:46:23;94888.59;;;10.41;100.00
13314;BME280;6725;48.112;11.604;2023-04-30T04:48:49;94877.66;;;10.45;100.00
13314;BME280;6725;48.112;11.604;2023-04-30T04:51:14;94879.25;;;10.42;100.00
13314;BME280;6725;48.112;11.604;2023-04-30T04:53:40;94874.44;;;10.50;100.00
13314;BME280;6725;48.112;11.604;2023-04-30T04:56:05;94886.06;;;10.54;100.00
13314;BME280;6725;48.112;11.604;2023-04-30T04:58:31;94895.34;;;10.60;100.00
13314;BME280;6725;48.112;11.604;2023-04-30T05:00:57;94887.56;;;10.58;100.00
13314;BME280;6725;48.112;11.604;2023-04-30T05:03:24;94904.94;;;10.45;100.00
13314;BME280;6725;48.112;11.604;2023-04-30T05:05:51;94895.50;;;10.49;100.00
13314;BME280;6725;48.112;11.604;2023-04-30T05:08:16;94889.09;;;10.59;100.00
13314;BME280;6725;48.112;11.604;2023-04-30T05:10:41;94896.38;;;10.66;100.00
13314;BME280;6725;48.112;11.604;2023-04-30T05:13:07;94903.03;;;10.65;100.00
13314;BME280;6725;48.112;11.604;2023-04-30T05:15:32;94908.72;;;10.51;100.00
13314;BME280;6725;48.112;11.604;2023-04-30T05:17:57;94910.19;;;10.59;100.00
13314;BME280;6725;48.112;11.604;2023-04-30T05:20:23;94913.72;;;10.79;100.00
13314;BME280;6725;48.112;11.604;2023-04-30T05:22:48;94932.97;;;10.95;100.00
13314;BME280;6725;48.112;11.604;2023-04-30T05:25:14;94945.56;;;11.12;100.00
13314;BME280;6725;48.112;11.604;2023-04-30T05:27:39;94987.38;;;11.09;100.00
13314;BME280;6725;48.112;11.604;2023-04-30T05:30:05;94997.47;;;11.12;100.00
13314;BME280;6725;48.112;11.604;2023-04-30T05:32:31;95041.91;;;11.16;100.00
13314;BME280;6725;48.112;11.604;2023-04-30T05:34:56;95053.03;;;11.05;100.00
13314;BME280;6725;48.112;11.604;2023-04-30T05:37:21;95055.97;;;11.14;100.00
13314;BME280;6725;48.112;11.604;2023-04-30T05:39:47;95081.44;;;10.85;100.00
13314;BME280;6725;48.112;11.604;2023-04-30T05:42:13;95060.50;;;10.75;100.00
13314;BME280;6725;48.112;11.604;2023-04-30T05:44:39;95034.59;;;10.86;100.00
13314;BME280;6725;48.112;11.604;2023-04-30T05:47:04;95026.72;;;10.88;100.00
13314;BME280;6725;48.112;11.604;2023-04-30T05:49:30;95035.34;;;10.87;100.00
13314;BME280;6725;48.112;11.604;2023-04-30T05:51:55;95042.84;;;11.06;100.00
13314;BME280;6725;48.112;11.604;2023-04-30T05:54:21;95049.03;;;11.10;100.00
13314;BME280;6725;48.112;11.604;2023-04-30T05:56:46;95064.25;;;11.34;100.00
13314;BME280;6725;48.112;11.604;2023-04-30T05:59:12;95088.47;;;11.09;100.00
13314;BME280;6725;48.112;11.604;2023-04-30T06:01:38;95102.13;;;11.09;100.00
13314;BME280;6725;48.112;11.604;2023-04-30T06:04:03;95098.53;;;10.89;100.00
13314;BME280;6725;48.112;11.604;2023-04-30T06:06:29;95076.25;;;11.17;100.00
13314;BME280;6725;48.112;11.604;2023-04-30T06:08:56;95095.63;;;11.26;100.00
13314;BME280;6725;48.112;11.604;2023-04-30T06:11:21;95121.03;;;11.49;100.00
13314;BME280;6725;48.112;11.604;2023-04-30T06:13:47;95144.41;;;11.54;100.00
13314;BME280;6725;48.112;11.604;2023-04-30T06:16:13;95169.31;;;11.59;100.00
13314;BME280;6725;48.112;11.604;2023-04-30T06:18:38;95199.38;;;11.86;100.00
13314;BME280;6725;48.112;11.604;2023-04-30T06:21:04;95227.34;;;11.97;100.00
13314;BME280;6725;48.112;11.604;2023-04-30T06:23:29;95257.63;;;11.86;100.00
13314;BME280;6725;48.112;11.604;2023-04-30T06:25:54;95286.63;;;12.07;100.00
13314;BME280;6725;48.112;11.604;2023-04-30T06:28:20;95302.44;;;11.96;100.00
13314;BME280;6725;48.112;11.604;2023-04-30T06:30:46;95312.19;;;12.23;100.00
13314;BME280;6725;48.112;11.604;2023-04-30T06:33:11;95333.06;;;12.37;100.00
13314;BME280;6725;48.112;11.604;2023-04-30T06:35:37;95340.34;;;12.70;100.00
13314;BME280;6725;48.112;11.604;2023-04-30T06:38:02;95375.03;;;13.03;100.00
13314;BME280;6725;48.112;11.604;2023-04-30T06:40:28;95397.16;;;13.35;100.00
13314;BME280;6725;48.112;11.604;2023-04-30T06:42:53;95423.50;;;13.52;100.00
13314;BME280;6725;48.112;11.604;2023-04-30T06:45:19;95430.00;;;12.92;100.00
13314;BME280;6725;48.112;11.604;2023-04-30T06:47:44;95459.25;;;14.07;100.00
13314;BME280;6725;48.112;11.604;2023-04-30T06:50:11;95476.63;;;15.55;100.00
13314;BME280;6725;48.112;11.604;2023-04-30T06:52:36;95506.13;;;16.40;100.00
13314;BME280;6725;48.112;11.604;2023-04-30T06:55:02;95511.75;;;17.28;100.00
13314;BME280;6725;48.112;11.604;2023-04-30T06:57:27;95519.50;;;18.48;100.00
13314;BME280;6725;48.112;11.604;2023-04-30T06:59:53;95530.97;;;18.25;100.00
13314;BME280;6725;48.112;11.604;2023-04-30T07:02:19;95530.63;;;18.35;100.00
13314;BME280;6725;48.112;11.604;2023-04-30T07:04:44;95544.63;;;19.45;100.00
13314;BME280;6725;48.112;11.604;2023-04-30T07:07:10;95535.81;;;19.07;100.00
13314;BME280;6725;48.112;11.604;2023-04-30T07:09:35;95536.72;;;19.04;100.00
13314;BME280;6725;48.112;11.604;2023-04-30T07:12:01;95537.81;;;18.54;100.00
13314;BME280;6725;48.112;11.604;2023-04-30T07:14:26;95539.59;;;18.27;100.00
13314;BME280;6725;48.112;11.604;2023-04-30T07:16:52;95540.03;;;17.45;100.00
13314;BME280;6725;48.112;11.604;2023-04-30T07:19:18;95533.41;;;17.55;100.00
13314;BME280;6725;48.112;11.604;2023-04-30T07:21:44;95533.41;;;17.30;100.00
13314;BME280;6725;48.112;11.604;2023-04-30T07:24:09;95535.03;;;17.65;100.00
13314;BME280;6725;48.112;11.604;2023-04-30T07:26:35;95530.31;;;18.55;100.00
13314;BME280;6725;48.112;11.604;2023-04-30T07:29:00;95533.19;;;18.73;100.00
13314;BME280;6725;48.112;11.604;2023-04-30T07:31:26;95536.63;;;18.86;100.00
13314;BME280;6725;48.112;11.604;2023-04-30T07:33:51;95537.31;;;18.68;100.00
13314;BME280;6725;48.112;11.604;2023-04-30T07:36:19;95530.28;;;20.40;100.00
13314;BME280;6725;48.112;11.604;2023-04-30T07:38:45;95543.22;;;19.98;100.00
13314;BME280;6725;48.112;11.604;2023-04-30T07:41:10;95539.63;;;18.70;100.00
13314;BME280;6725;48.112;11.604;2023-04-30T07:43:35;95531.31;;;19.80;100.00
13314;BME280;6725;48.112;11.604;2023-04-30T07:46:01;95541.41;;;18.21;100.00
13314;BME280;6725;48.112;11.604;2023-04-30T07:48:27;95540.44;;;16.81;100.00
13314;BME280;6725;48.112;11.604;2023-04-30T07:50:52;95532.03;;;18.61;100.00
13314;BME280;6725;48.112;11.604;2023-04-30T07:53:17;95528.28;;;18.77;100.00
13314;BME280;6725;48.112;11.604;2023-04-30T07:55:43;95533.16;;;18.30;100.00
13314;BME280;6725;48.112;11.604;2023-04-30T07:58:08;95518.13;;;19.35;100.00
13314;BME280;6725;48.112;11.604;2023-04-30T08:00:33;95526.09;;;21.31;100.00
13314;BME280;6725;48.112;11.604;2023-04-30T08:02:59;95534.69;;;18.65;100.00
13314;BME280;6725;48.112;11.604;2023-04-30T08:05:25;95526.78;;;17.15;100.00
13314;BME280;6725;48.112;11.604;2023-04-30T08:07:51;95524.91;;;17.96;100.00
13314;BME280;6725;48.112;11.604;2023-04-30T08:10:16;95530.81;;;19.54;100.00
13314;BME280;6725;48.112;11.604;2023-04-30T08:12:41;95532.44;;;19.12;100.00
13314;BME280;6725;48.112;11.604;2023-04-30T08:15:07;95542.22;;;18.43;100.00
13314;BME280;6725;48.112;11.604;2023-04-30T08:17:33;95533.81;;;18.34;100.00
13314;BME280;6725;48.112;11.604;2023-04-30T08:20:03;95531.28;;;18.27;100.00
13314;BME280;6725;48.112;11.604;2023-04-30T08:22:28;95537.50;;;17.25;100.00
13314;BME280;6725;48.112;11.604;2023-04-30T08:24:54;95524.78;;;17.53;100.00
13314;BME280;6725;48.112;11.604;2023-04-30T08:27:20;95547.25;;;17.89;100.00
13314;BME280;6725;48.112;11.604;2023-04-30T08:29:46;95526.31;;;17.29;100.00
13314;BME280;6725;48.112;11.604;2023-04-30T08:32:11;95532.41;;;19.03;100.00
13314;BME280;6725;48.112;11.604;2023-04-30T08:34:37;95535.66;;;18.15;100.00
13314;BME280;6725;48.112;11.604;2023-04-30T08:37:05;95523.78;;;18.27;100.00
13314;BME280;6725;48.112;11.604;2023-04-30T08:39:30;95522.78;;;17.41;100.00
13314;BME280;6725;48.112;11.604;2023-04-30T08:41:56;95535.13;;;18.63;100.00
13314;BME280;6725;48.112;11.604;2023-04-30T08:44:26;95524.19;;;18.60;100.00
13314;BME280;6725;48.112;11.604;2023-04-30T08:46:53;95528.97;;;18.90;100.00
13314;BME280;6725;48.112;11.604;2023-04-30T08:49:20;95532.31;;;17.99;100.00
13314;BME280;6725;48.112;11.604;2023-04-30T08:51:46;95531.41;;;17.89;100.00
13314;BME280;6725;48.112;11.604;2023-04-30T08:54:12;95529.59;;;17.74;100.00
13314;BME280;6725;48.112;11.604;2023-04-30T08:56:39;95531.22;;;17.84;100.00
13314;BME280;6725;48.112;11.604;2023-04-30T08:59:05;95524.91;;;17.37;100.00
13314;BME280;6725;48.112;11.604;2023-04-30T09:01:30;95534.38;;;16.73;100.00
13314;BME280;6725;48.112;11.604;2023-04-30T09:03:56;95545.41;;;16.32;100.00
13314;BME280;6725;48.112;11.604;2023-04-30T09:06:21;95532.56;;;16.25;100.00
13314;BME280;6725;48.112;11.604;2023-04-30T09:08:48;95551.56;;;16.07;100.00
13314;BME280;6725;48.112;11.604;2023-04-30T09:11:28;95555.25;;;15.72;100.00
13314;BME280;6725;48.112;11.604;2023-04-30T09:13:56;95545.28;;;15.62;100.00
13314;BME280;6725;48.112;11.604;2023-04-30T09:16:22;95553.41;;;15.18;100.00
13314;BME280;6725;48.112;11.604;2023-04-30T09:18:48;95544.34;;;15.37;100.00
13314;BME280;6725;48.112;11.604;2023-04-30T09:21:14;95543.13;;;15.70;100.00
13314;BME280;6725;48.112;11.604;2023-04-30T09:24:00;95540.13;;;16.37;100.00
13314;BME280;6725;48.112;11.604;2023-04-30T09:26:36;95551.59;;;15.91;100.00
13314;BME280;6725;48.112;11.604;2023-04-30T09:29:02;95534.22;;;15.78;100.00
13314;BME280;6725;48.112;11.604;2023-04-30T09:31:32;95544.41;;;15.33;100.00
13314;BME280;6725;48.112;11.604;2023-04-30T09:33:57;95544.34;;;15.53;100.00
13314;BME280;6725;48.112;11.604;2023-04-30T09:36:23;95543.34;;;15.11;100.00
13314;BME280;6725;48.112;11.604;2023-04-30T09:38:48;95549.31;;;14.90;100.00
13314;BME280;6725;48.112;11.604;2023-04-30T09:43:47;95551.69;;;14.72;100.00
13314;BME280;6725;48.112;11.604;2023-04-30T09:46:13;95558.53;;;14.64;100.00
13314;BME280;6725;48.112;11.604;2023-04-30T09:48:40;95558.34;;;14.55;100.00
13314;BME280;6725;48.112;11.604;2023-04-30T09:51:06;95555.97;;;14.38;100.00
13314;BME280;6725;48.112;11.604;2023-04-30T09:53:34;95552.59;;;14.50;100.00
13314;BME280;6725;48.112;11.604;2023-04-30T09:56:06;95551.38;;;14.31;100.00
13314;BME280;6725;48.112;11.604;2023-04-30T09:58:35;95540.34;;;14.70;100.00
13314;BME280;6725;48.112;11.604;2023-04-30T10:01:07;95544.16;;;14.76;100.00
13314;BME280;6725;48.112;11.604;2023-04-30T10:03:32;95550.91;;;14.91;100.00
13314;BME280;6725;48.112;11.604;2023-04-30T10:05:59;95547.09;;;14.85;100.00
13314;BME280;6725;48.112;11.604;2023-04-30T10:08:32;95546.97;;;15.24;100.00
13314;BME280;6725;48.112;11.604;2023-04-30T10:11:03;95538.31;;;14.90;100.00
13314;BME280;6725;48.112;11.604;2023-04-30T10:13:52;95536.84;;;15.21;100.00
13314;BME280;6725;48.112;11.604;2023-04-30T10:16:22;95534.41;;;15.07;100.00
13314;BME280;6725;48.112;11.604;2023-04-30T10:18:51;95541.06;;;16.02;100.00
13314;BME280;6725;48.112;11.604;2023-04-30T10:21:17;95529.09;;;15.48;100.00
13314;BME280;6725;48.112;11.604;2023-04-30T10:23:45;95532.91;;;15.54;100.00
13314;BME280;6725;48.112;11.604;2023-04-30T10:26:10;95525.38;;;15.71;100.00
13314;BME280;6725;48.112;11.604;2023-04-30T10:28:37;95516.97;;;16.06;100.00
13314;BME280;6725;48.112;11.604;2023-04-30T10:31:03;95532.72;;;15.61;100.00
13314;BME280;6725;48.112;11.604;2023-04-30T10:33:41;95506.66;;;15.94;100.00
13314;BME280;6725;48.112;11.604;2023-04-30T10:36:21;95507.88;;;15.93;100.00
13314;BME280;6725;48.112;11.604;2023-04-30T10:38:49;95516.63;;;16.04;100.00
13314;BME280;6725;48.112;11.604;2023-04-30T10:41:14;95499.03;;;15.86;100.00
13314;BME280;6725;48.112;11.604;2023-04-30T10:43:40;95504.53;;;16.43;100.00
13314;BME280;6725;48.112;11.604;2023-04-30T10:46:07;95499.41;;;16.83;100.00
13314;BME280;6725;48.112;11.604;2023-04-30T10:48:33;95505.31;;;16.56;100.00
13314;BME280;6725;48.112;11.604;2023-04-30T10:51:00;95500.13;;;16.46;100.00
13314;BME280;6725;48.112;11.604;2023-04-30T10:53:29;95502.69;;;16.53;100.00
13314;BME280;6725;48.112;11.604;2023-04-30T10:56:01;95489.59;;;16.82;100.00
13314;BME280;6725;48.112;11.604;2023-04-30T10:58:33;95485.38;;;17.27;100.00
13314;BME280;6725;48.112;11.604;2023-04-30T11:01:10;95479.97;;;16.99;100.00
13314;BME280;6725;48.112;11.604;2023-04-30T11:03:37;95489.34;;;16.64;100.00
13314;BME280;6725;48.112;11.604;2023-04-30T11:06:13;95484.00;;;17.57;100.00
13314;BME280;6725;48.112;11.604;2023-04-30T11:08:42;95482.75;;;18.26;100.00
13314;BME280;6725;48.112;11.604;2023-04-30T11:11:09;95488.88;;;17.53;100.00
13314;BME280;6725;48.112;11.604;2023-04-30T11:13:44;95483.75;;;17.98;100.00
13314;BME280;6725;48.112;11.604;2023-04-30T11:16:10;95473.47;;;18.20;100.00
13314;BME280;6725;48.112;11.604;2023-04-30T11:18:45;95482.63;;;18.08;100.00
13314;BME280;6725;48.112;11.604;2023-04-30T11:21:11;95490.25;;;16.86;100.00
13314;BME280;6725;48.112;11.604;2023-04-30T11:23:40;95473.19;;;17.37;100.00
13314;BME280;6725;48.112;11.604;2023-04-30T11:26:07;95478.28;;;17.26;100.00
13314;BME280;6725;48.112;11.604;2023-04-30T11:28:36;95471.38;;;16.97;100.00
13314;BME280;6725;48.112;11.604;2023-04-30T11:31:02;95486.69;;;16.60;100.00
13314;BME280;6725;48.112;11.604;2023-04-30T11:33:30;95482.63;;;16.23;100.00
13314;BME280;6725;48.112;11.604;2023-04-30T11:35:57;95486.06;;;16.27;100.00
13314;BME280;6725;48.112;11.604;2023-04-30T11:38:32;95477.53;;;16.51;100.00
13314;BME280;6725;48.112;11.604;2023-04-30T11:41:01;95473.69;;;16.61;100.00
13314;BME280;6725;48.112;11.604;2023-04-30T11:43:30;95475.13;;;16.53;100.00
13314;BME280;6725;48.112;11.604;2023-04-30T11:48:31;95472.00;;;16.51;100.00
13314;BME280;6725;48.112;11.604;2023-04-30T11:50:57;95489.09;;;16.04;100.00
13314;BME280;6725;48.112;11.604;2023-04-30T11:53:28;95472.78;;;16.22;100.00
13314;BME280;6725;48.112;11.604;2023-04-30T11:55:53;95463.06;;;16.47;100.00
13314;BME280;6725;48.112;11.604;2023-04-30T11:58:19;95479.00;;;15.98;100.00
13314;BME280;6725;48.112;11.604;2023-04-30T12:00:45;95461.44;;;16.20;100.00
13314;BME280;6725;48.112;11.604;2023-04-30T12:03:13;95465.66;;;16.25;100.00
13314;BME280;6725;48.112;11.604;2023-04-30T12:05:39;95463.34;;;16.23;100.00
13314;BME280;6725;48.112;11.604;2023-04-30T12:08:06;95473.69;;;16.19;100.00
13314;BME280;6725;48.112;11.604;2023-04-30T12:10:33;95472.47;;;16.20;100.00
13314;BME280;6725;48.112;11.604;2023-04-30T12:12:59;95468.91;;;16.07;100.00
13314;BME280;6725;48.112;11.604;2023-04-30T12:15:25;95477.03;;;16.39;100.00
13314;BME280;6725;48.112;11.604;2023-04-30T12:17:52;95467.53;;;16.40;100.00
13314;BME280;6725;48.112;11.604;2023-04-30T12:20:19;95475.16;;;16.36;100.00
13314;BME280;6725;48.112;11.604;2023-04-30T12:22:46;95471.19;;;16.37;100.00
13314;BME280;6725;48.112;11.604;2023-04-30T12:25:13;95450.72;;;16.51;100.00
13314;BME280;6725;48.112;11.604;2023-04-30T12:27:47;95463.53;;;16.16;100.00
13314;BME280;6725;48.112;11.604;2023-04-30T12:30:13;95475.69;;;16.31;100.00
13314;BME280;6725;48.112;11.604;2023-04-30T12:32:43;95461.09;;;16.47;100.00
13314;BME280;6725;48.112;11.604;2023-04-30T12:35:15;95458.56;;;16.53;100.00
13314;BME280;6725;48.112;11.604;2023-04-30T12:37:45;95454.38;;;16.48;100.00
13314;BME280;6725;48.112;11.604;2023-04-30T12:40:12;95455.16;;;16.86;100.00
13314;BME280;6725;48.112;11.604;2023-04-30T12:42:37;95460.34;;;16.84;100.00
13314;BME280;6725;48.112;11.604;2023-04-30T12:45:03;95447.94;;;17.26;100.00
13314;BME280;6725;48.112;11.604;2023-04-30T12:47:29;95436.16;;;17.60;100.00
13314;BME280;6725;48.112;11.604;2023-04-30T12:49:54;95449.06;;;16.54;100.00
13314;BME280;6725;48.112;11.604;2023-04-30T12:52:23;95435.88;;;17.45;100.00
13314;BME280;6725;48.112;11.604;2023-04-30T12:54:49;95439.22;;;17.96;100.00
13314;BME280;6725;48.112;11.604;2023-04-30T12:57:14;95435.16;;;16.95;100.00
13314;BME280;6725;48.112;11.604;2023-04-30T12:59:55;95448.22;;;16.82;100.00
13314;BME280;6725;48.112;11.604;2023-04-30T13:02:27;95431.88;;;16.75;100.00